Terminal Aerodrome Forecast
Issued by NWS

Home | Current Version | Previous Version | Graphics & Text | Print | Product List | Glossary Off
Versions: 1 2 3 4 5 6 7 8 9 10 11 12 13 14 15 16 17 18 19 20 21 22 23 24 25 26 27 28

969
FTUS43 KDDC 031123
TAFHYS
TAF
KHYS 031123Z 0312/0412 VRB05KT P6SM -RASN OVC040
      TEMPO 0314/0318 3SM -SN BKN010
     FM031800 11007KT P6SM OVC003
     FM040000 VRB06KT P6SM BKN003
     FM040300 VRB06KT P6SM SKC=

USA.gov is the U.S. government's official web portal to all federal, state and local government web resources and services.